Observation data for Goodlett on 02/14/2020      Previous  Date  Next       Current Mesonet Observations  Soil Data  Daily Summary Page  Observations in Plain Language
KGDS 140600Z 05008KT M04/M09 A3039 RMK A01 T10441091  RH  069%=      5-min Rain = 0
KGDS 140605Z 06007KT M05/M09 A3038 RMK A01 T10451091  RH  070%=      5-min Rain = 0
KGDS 140610Z 05006KT M05/M09 A3039 RMK A01 T10461090  RH  071%=      5-min Rain = 0
KGDS 140615Z 05007KT M05/M09 A3039 RMK A01 T10471090  RH  072%=      5-min Rain = 0
KGDS 140620Z 05007KT M05/M09 A3039 RMK A01 T10481091  RH  072%=      5-min Rain = 0
KGDS 140625Z 04007KT M05/M09 A3039 RMK A01 T10481091  RH  072%=      5-min Rain = 0
KGDS 140630Z 04006KT M05/M09 A3039 RMK A01 T10501090  RH  073%=      5-min Rain = 0
KGDS 140635Z 04006KT M05/M09 A3039 RMK A01 T10501090  RH  074%=      5-min Rain = 0
KGDS 140640Z 05006KT M05/M09 A3039 RMK A01 T10511090  RH  074%=      5-min Rain = 0
KGDS 140645Z 05006KT M05/M09 A3039 RMK A01 T10521091  RH  074%=      5-min Rain = 0
KGDS 140650Z 05006KT M05/M09 A3039 RMK A01 T10531091  RH  075%=      5-min Rain = 0
KGDS 140655Z 05006KT M05/M09 A3039 RMK A01 T10541091  RH  075%=      5-min Rain = 0
KGDS 140700Z 04007KT M05/M09 A3039 RMK A01 T10531092  RH  074%=      5-min Rain = 0
KGDS 140705Z 04006KT M05/M09 A3039 RMK A01 T10531092  RH  074%=      5-min Rain = 0
KGDS 140710Z 04007KT M05/M09 A3039 RMK A01 T10531093  RH  073%=      5-min Rain = 0
KGDS 140715Z 05007KT M05/M09 A3039 RMK A01 T10531094  RH  073%=      5-min Rain = 0
KGDS 140720Z 04007KT M05/M09 A3039 RMK A01 T10541094  RH  073%=      5-min Rain = 0
KGDS 140725Z 04005KT M06/M09 A3039 RMK A01 T10551092  RH  075%=      5-min Rain = 0
KGDS 140730Z 03005KT M06/M09 A3039 RMK A01 T10561091  RH  076%=      5-min Rain = 0
KGDS 140735Z 04006KT M06/M09 A3039 RMK A01 T10571091  RH  077%=      5-min Rain = 0
KGDS 140740Z 04006KT M06/M09 A3039 RMK A01 T10571091  RH  077%=      5-min Rain = 0
KGDS 140745Z 04006KT M06/M09 A304 RMK A01 T10571092  RH  076%=      5-min Rain = 0
KGDS 140750Z 04006KT M06/M09 A304 RMK A01 T10571092  RH  076%=      5-min Rain = 0
KGDS 140755Z 04006KT M06/M09 A304 RMK A01 T10571093  RH  076%=      5-min Rain = 0
KGDS 140800Z 04006KT M06/M09 A304 RMK A01 T10581094  RH  076%=      5-min Rain = 0
KGDS 140805Z 04006KT M06/M09 A304 RMK A01 T10581094  RH  076%=      5-min Rain = 0
KGDS 140810Z 04006KT M06/M10 A304 RMK A01 T10591095  RH  075%=      5-min Rain = 0
KGDS 140815Z 04006KT M06/M09 A304 RMK A01 T10591094  RH  076%=      5-min Rain = 0
KGDS 140820Z 04006KT M06/M09 A304 RMK A01 T10591094  RH  076%=      5-min Rain = 0
KGDS 140825Z 04006KT M06/M10 A304 RMK A01 T10591095  RH  076%=      5-min Rain = 0
KGDS 140830Z 04005KT M06/M09 A304 RMK A01 T10601094  RH  077%=      5-min Rain = 0
KGDS 140835Z 04005KT M06/M09 A304 RMK A01 T10601094  RH  077%=      5-min Rain = 0
KGDS 140840Z 04005KT M06/M09 A304 RMK A01 T10611094  RH  078%=      5-min Rain = 0
KGDS 140845Z 04005KT M06/M09 A304 RMK A01 T10621093  RH  078%=      5-min Rain = 0
KGDS 140850Z 04004KT M06/M09 A304 RMK A01 T10621093  RH  079%=      5-min Rain = 0
KGDS 140855Z 04004KT M06/M09 A304 RMK A01 T10621093  RH  078%=      5-min Rain = 0
KGDS 140900Z 04005KT M06/M09 A304 RMK A01 T10631094  RH  079%=      5-min Rain = 0
KGDS 140905Z 03004KT M06/M09 A304 RMK A01 T10641093  RH  080%=      5-min Rain = 0
KGDS 140910Z 04004KT M06/M09 A304 RMK A01 T10641092  RH  080%=      5-min Rain = 0
KGDS 140915Z 03004KT M06/M09 A304 RMK A01 T10641092  RH  080%=      5-min Rain = 0
KGDS 140920Z 03005KT M06/M09 A304 RMK A01 T10641092  RH  080%=      5-min Rain = 0
KGDS 140925Z 03005KT M07/M09 A304 RMK A01 T10651093  RH  080%=      5-min Rain = 0
KGDS 140930Z 03005KT M07/M09 A304 RMK A01 T10651092  RH  081%=      5-min Rain = 0
KGDS 140935Z 03005KT M06/M09 A304 RMK A01 T10641092  RH  080%=      5-min Rain = 0
KGDS 140940Z 03005KT M07/M09 A304 RMK A01 T10651092  RH  081%=      5-min Rain = 0
KGDS 140945Z 02004KT M07/M09 A304 RMK A01 T10651092  RH  081%=      5-min Rain = 0
KGDS 140950Z 02004KT M07/M09 A304 RMK A01 T10671092  RH  082%=      5-min Rain = 0
KGDS 140955Z 02004KT M07/M09 A304 RMK A01 T10681092  RH  083%=      5-min Rain = 0
KGDS 141000Z 02005KT M07/M09 A304 RMK A01 T10681092  RH  083%=      5-min Rain = 0
KGDS 141005Z 02005KT M07/M09 A304 RMK A01 T10681093  RH  082%=      5-min Rain = 0
KGDS 141010Z 02004KT M07/M09 A304 RMK A01 T10681093  RH  082%=      5-min Rain = 0
KGDS 141015Z 01004KT M07/M09 A304 RMK A01 T10701094  RH  083%=      5-min Rain = 0
KGDS 141020Z 01004KT M07/M09 A304 RMK A01 T10701093  RH  083%=      5-min Rain = 0
KGDS 141025Z 02004KT M07/M09 A304 RMK A01 T10701094  RH  083%=      5-min Rain = 0
KGDS 141030Z 01004KT M07/M09 A304 RMK A01 T10711094  RH  083%=      5-min Rain = 0
KGDS 141035Z 01004KT M07/M09 A304 RMK A01 T10711094  RH  083%=      5-min Rain = 0
KGDS 141040Z 02004KT M07/M10 A304 RMK A01 T10711095  RH  083%=      5-min Rain = 0
KGDS 141045Z 02004KT M07/M10 A304 RMK A01 T10711095  RH  083%=      5-min Rain = 0
KGDS 141050Z 02004KT M07/M10 A304 RMK A01 T10711095  RH  083%=      5-min Rain = 0
KGDS 141055Z 02004KT M07/M10 A304 RMK A01 T10701095  RH  082%=      5-min Rain = 0
KGDS 141100Z 02004KT M07/M10 A304 RMK A01 T10701095  RH  083%=      5-min Rain = 0
KGDS 141105Z 02004KT M07/M10 A304 RMK A01 T10711095  RH  083%=      5-min Rain = 0
KGDS 141110Z 02004KT M07/M10 A304 RMK A01 T10711095  RH  083%=      5-min Rain = 0
KGDS 141115Z 02004KT M07/M10 A304 RMK A01 T10711095  RH  082%=      5-min Rain = 0
KGDS 141120Z 02004KT M07/M10 A304 RMK A01 T10701095  RH  082%=      5-min Rain = 0
KGDS 141125Z 03004KT M07/M09 A304 RMK A01 T10701094  RH  082%=      5-min Rain = 0
KGDS 141130Z 02004KT M07/M10 A304 RMK A01 T10701095  RH  082%=      5-min Rain = 0
KGDS 141135Z 02003KT M07/M09 A304 RMK A01 T10701094  RH  083%=      5-min Rain = 0
KGDS 141140Z 01003KT M07/M10 A3041 RMK A01 T10711095  RH  083%=      5-min Rain = 0
KGDS 141145Z 00003KT M07/M09 A3041 RMK A01 T10691094  RH  082%=      5-min Rain = 0
KGDS 141150Z 01003KT M07/M09 A3041 RMK A01 T10671093  RH  082%=      5-min Rain = 0
KGDS 141155Z 01003KT M07/M09 A3041 RMK A01 T10661094  RH  080%=      5-min Rain = 0
KGDS 141200Z 01002KT M07/M09 A3041 RMK A01 T10651093  RH  080%=      5-min Rain = 0
KGDS 141205Z 02002KT M06/M09 A3041 RMK A01 T10641093  RH  080%=      5-min Rain = 0
KGDS 141210Z 02002KT M06/M09 A3041 RMK A01 T10631092  RH  080%=      5-min Rain = 0
KGDS 141215Z 01002KT M06/M09 A3041 RMK A01 T10631092  RH  079%=      5-min Rain = 0
KGDS 141220Z 01002KT M06/M09 A3041 RMK A01 T10631092  RH  080%=      5-min Rain = 0
KGDS 141225Z 01003KT M06/M09 A3041 RMK A01 T10641091  RH  081%=      5-min Rain = 0
KGDS 141230Z 01003KT M07/M09 A3041 RMK A01 T10651090  RH  082%=      5-min Rain = 0
KGDS 141235Z 01003KT M07/M09 A3041 RMK A01 T10661091  RH  082%=      5-min Rain = 0
KGDS 141240Z 01004KT M07/M09 A3041 RMK A01 T10671091  RH  083%=      5-min Rain = 0
KGDS 141245Z 02004KT M07/M09 A3041 RMK A01 T10681091  RH  084%=      5-min Rain = 0
KGDS 141250Z 02004KT M07/M09 A3041 RMK A01 T10691091  RH  084%=      5-min Rain = 0
KGDS 141255Z 01004KT M07/M09 A3041 RMK A01 T10691091  RH  084%=      5-min Rain = 0
KGDS 141300Z 01004KT M07/M09 A3041 RMK A01 T10701092  RH  084%=      5-min Rain = 0
KGDS 141305Z 02003KT M07/M09 A3041 RMK A01 T10701091  RH  085%=      5-min Rain = 0
KGDS 141310Z 02004KT M07/M09 A3041 RMK A01 T10701091  RH  085%=      5-min Rain = 0
KGDS 141315Z 02004KT M07/M09 A3041 RMK A01 T10701091  RH  085%=      5-min Rain = 0
KGDS 141320Z 02004KT M07/M09 A3041 RMK A01 T10711091  RH  085%=      5-min Rain = 0
KGDS 141325Z 02004KT M07/M09 A3041 RMK A01 T10711091  RH  085%=      5-min Rain = 0
KGDS 141330Z 02004KT M07/M09 A3041 RMK A01 T10701091  RH  085%=      5-min Rain = 0
KGDS 141335Z 01004KT M07/M09 A3042 RMK A01 T10701090  RH  085%=      5-min Rain = 0
KGDS 141340Z 01004KT M07/M09 A3042 RMK A01 T10691090  RH  085%=      5-min Rain = 0
KGDS 141345Z 01003KT M07/M09 A3042 RMK A01 T10691090  RH  084%=      5-min Rain = 0
KGDS 141350Z 01003KT M07/M09 A3042 RMK A01 T10691090  RH  085%=      5-min Rain = 0
KGDS 141355Z 01003KT M07/M09 A3042 RMK A01 T10671089  RH  084%=      5-min Rain = 0
KGDS 141400Z 01003KT M07/M09 A3042 RMK A01 T10661089  RH  083%=      5-min Rain = 0
KGDS 141405Z 02003KT M06/M09 A3042 RMK A01 T10641088  RH  083%=      5-min Rain = 0
KGDS 141410Z 03003KT M06/M09 A3043 RMK A01 T10631088  RH  083%=      5-min Rain = 0
KGDS 141415Z 03003KT M06/M09 A3043 RMK A01 T10611086  RH  083%=      5-min Rain = 0
KGDS 141420Z 03003KT M06/M09 A3043 RMK A01 T10591085  RH  082%=      5-min Rain = 0
KGDS 141425Z 03003KT M06/M09 A3043 RMK A01 T10571085  RH  080%=      5-min Rain = 0
KGDS 141430Z 03004KT M06/M09 A3043 RMK A01 T10551086  RH  079%=      5-min Rain = 0
KGDS 141435Z 04003KT M05/M09 A3043 RMK A01 T10521086  RH  077%=      5-min Rain = 0
KGDS 141440Z 05003KT M05/M09 A3044 RMK A01 T10511087  RH  075%=      5-min Rain = 0
KGDS 141445Z 06003KT M05/M09 A3043 RMK A01 T10491085  RH  076%=      5-min Rain = 0
KGDS 141450Z 07004KT M05/M09 A3043 RMK A01 T10481086  RH  074%=      5-min Rain = 0
KGDS 141455Z 09004KT M05/M09 A3044 RMK A01 T10461088  RH  072%=      5-min Rain = 0
KGDS 141500Z 11003KT M04/M09 A3044 RMK A01 T10421085  RH  072%=      5-min Rain = 0
KGDS 141505Z 12005KT M04/M09 A3044 RMK A01 T10421089  RH  069%=      5-min Rain = 0
KGDS 141510Z 11005KT M04/M09 A3044 RMK A01 T10411090  RH  069%=      5-min Rain = 0
KGDS 141515Z 12006KT M04/M09 A3044 RMK A01 T10401089  RH  069%=      5-min Rain = 0
KGDS 141520Z 13006KT M04/M09 A3043 RMK A01 T10381088  RH  068%=      5-min Rain = 0
KGDS 141525Z 13005KT M04/M09 A3043 RMK A01 T10351085  RH  068%=      5-min Rain = 0
KGDS 141530Z 12006KT M04/M09 A3043 RMK A01 T10371087  RH  068%=      5-min Rain = 0
KGDS 141535Z 12005KT M04/M09 A3043 RMK A01 T10351085  RH  068%=      5-min Rain = 0
KGDS 141540Z 14006KT M03/M08 A3043 RMK A01 T10321083  RH  067%=      5-min Rain = 0
KGDS 141545Z 13007KT M03/M08 A3043 RMK A01 T10301084  RH  066%=      5-min Rain = 0
KGDS 141550Z 14008KT M03/M08 A3043 RMK A01 T10281083  RH  065%=      5-min Rain = 0
KGDS 141555Z 13006KT M02/M08 A3043 RMK A01 T10231082  RH  064%=      5-min Rain = 0
KGDS 141600Z 14008KT M02/M08 A3042 RMK A01 T10201084  RH  061%=      5-min Rain = 0
KGDS 141605Z 14007KT M02/M09 A3042 RMK A01 T10191086  RH  060%=      5-min Rain = 0
KGDS 141610Z 15007KT M02/M09 A3042 RMK A01 T10171086  RH  059%=      5-min Rain = 0
KGDS 141615Z 14006KT M02/M09 A3042 RMK A01 T10171085  RH  060%=      5-min Rain = 0
KGDS 141620Z 17008KT M01/M09 A3042 RMK A01 T10121085  RH  057%=      5-min Rain = 0
KGDS 141625Z 16006KT M01/M09 A3042 RMK A01 T10131087  RH  057%=      5-min Rain = 0
KGDS 141630Z 16004G9KT M01/M08 A3042 RMK A01 T10081083  RH  057%=      5-min Rain = 0
KGDS 141635Z 16008KT M00/M08 A3042 RMK A01 T10021081  RH  055%=      5-min Rain = 0
KGDS 141640Z 15008KT M01/M08 A3042 RMK A01 T10051084  RH  055%=      5-min Rain = 0
KGDS 141645Z 17008G13KT 00/M07 A3042 RMK A01 T00021074  RH  057%=      5-min Rain = 0
KGDS 141650Z 18008KT M00/M08 A3042 RMK A01 T10021077  RH  057%=      5-min Rain = 0
KGDS 141655Z 19008G13KT 00/07 A3041 RMK A01 T00000-70  RH  059%=      5-min Rain = 0
KGDS 141700Z 19009KT 00/M07 A3041 RMK A01 T00021065  RH  061%=      5-min Rain = 0
KGDS 141705Z 19009KT 00/M06 A3041 RMK A01 T00021063  RH  062%=      5-min Rain = 0
KGDS 141710Z 19011KT 00/M05 A3041 RMK A01 T00021054  RH  066%=      5-min Rain = 0
KGDS 141715Z 19010KT 00/M06 A3041 RMK A01 T00011055  RH  066%=      5-min Rain = 0
KGDS 141720Z 19009KT 00/M05 A3041 RMK A01 T00031053  RH  066%=      5-min Rain = 0
KGDS 141725Z 18009KT 01/M05 A3041 RMK A01 T00051052  RH  066%=      5-min Rain = 0
KGDS 141730Z 19010KT 01/M05 A304 RMK A01 T00071049  RH  067%=      5-min Rain = 0
KGDS 141735Z 20011KT 01/M05 A304 RMK A01 T00071048  RH  067%=      5-min Rain = 0
KGDS 141740Z 21011KT 01/M05 A3039 RMK A01 T00121047  RH  065%=      5-min Rain = 0
KGDS 141745Z 20010KT 01/M05 A3039 RMK A01 T00091050  RH  065%=      5-min Rain = 0
KGDS 141750Z 17010KT 02/M05 A3039 RMK A01 T00151048  RH  063%=      5-min Rain = 0
KGDS 141755Z 19010G16KT 02/M05 A3038 RMK A01 T00171048  RH  063%=      5-min Rain = 0
KGDS 141800Z 19009KT 02/M05 A3038 RMK A01 T00171051  RH  061%=      5-min Rain = 0
KGDS 141805Z 19007KT 02/M05 A3038 RMK A01 T00171053  RH  060%=      5-min Rain = 0
KGDS 141810Z 19008KT 02/M05 A3038 RMK A01 T00231049  RH  059%=      5-min Rain = 0
KGDS 141815Z 19005G11KT 02/M05 A3038 RMK A01 T00241049  RH  059%=      5-min Rain = 0
KGDS 141820Z 17008KT 03/M05 A3037 RMK A01 T00261048  RH  058%=      5-min Rain = 0
KGDS 141825Z 20007G15KT 03/M04 A3036 RMK A01 T00281044  RH  060%=      5-min Rain = 0
KGDS 141830Z 18008G14KT 03/M04 A3036 RMK A01 T00311042  RH  059%=      5-min Rain = 0
KGDS 141835Z 19009G14KT 03/M04 A3035 RMK A01 T00331040  RH  059%=      5-min Rain = 0
KGDS 141840Z 18007G14KT 04/M04 A3035 RMK A01 T00351040  RH  058%=      5-min Rain = 0
KGDS 141845Z 17011KT 04/M04 A3034 RMK A01 T00401041  RH  056%=      5-min Rain = 0
KGDS 141850Z 18009G14KT 04/M04 A3034 RMK A01 T00421042  RH  055%=      5-min Rain = 0
KGDS 141855Z 19010G15KT 04/M04 A3033 RMK A01 T00421042  RH  055%=      5-min Rain = 0
KGDS 141900Z 17010KT 05/M04 A3033 RMK A01 T00451040  RH  055%=      5-min Rain = 0
KGDS 141905Z 17010G16KT 05/M04 A3033 RMK A01 T00471039  RH  054%=      5-min Rain = 0
KGDS 141910Z 18011G17KT 05/M04 A3032 RMK A01 T00471040  RH  053%=      5-min Rain = 0
KGDS 141915Z 19011KT 05/M04 A3032 RMK A01 T00471041  RH  053%=      5-min Rain = 0
KGDS 141920Z 18009KT 05/M04 A3032 RMK A01 T00471041  RH  053%=      5-min Rain = 0
KGDS 141925Z 17010G17KT 05/M04 A3032 RMK A01 T00501040  RH  052%=      5-min Rain = 0
KGDS 141930Z 17011G16KT 05/M04 A3031 RMK A01 T00521038  RH  052%=      5-min Rain = 0
KGDS 141935Z 16013G18KT 05/M04 A303 RMK A01 T00511038  RH  052%=      5-min Rain = 0
KGDS 141940Z 16011G17KT 06/M04 A303 RMK A01 T00551037  RH  052%=      5-min Rain = 0
KGDS 141945Z 17010KT 06/M04 A3029 RMK A01 T00551037  RH  052%=      5-min Rain = 0
KGDS 141950Z 17012G17KT 06/M04 A3029 RMK A01 T00591037  RH  051%=      5-min Rain = 0
KGDS 141955Z 16012G17KT 06/M04 A3029 RMK A01 T00571038  RH  051%=      5-min Rain = 0
KGDS 142000Z 16011G17KT 06/M04 A3028 RMK A01 T00581038  RH  051%=      5-min Rain = 0
KGDS 142005Z 16011KT 06/M04 A3028 RMK A01 T00611037  RH  050%=      5-min Rain = 0
KGDS 142010Z 17013KT 06/M04 A3027 RMK A01 T00641035  RH  049%=      5-min Rain = 0
KGDS 142015Z 19012KT 06/M04 A3027 RMK A01 T00641035  RH  049%=      5-min Rain = 0
KGDS 142020Z 17009KT 07/M03 A3027 RMK A01 T00661034  RH  049%=      5-min Rain = 0
KGDS 142025Z 17012G18KT 07/M03 A3027 RMK A01 T00661033  RH  050%=      5-min Rain = 0
KGDS 142030Z 18010G15KT 07/M03 A3027 RMK A01 T00711030  RH  049%=      5-min Rain = 0
KGDS 142035Z 15014G19KT 07/M03 A3026 RMK A01 T00691031  RH  049%=      5-min Rain = 0
KGDS 142040Z 16012G18KT 07/M03 A3026 RMK A01 T00681032  RH  049%=      5-min Rain = 0
KGDS 142045Z 16015G20KT 07/M03 A3026 RMK A01 T00691031  RH  049%=      5-min Rain = 0
KGDS 142050Z 18012G18KT 07/M03 A3025 RMK A01 T00691030  RH  049%=      5-min Rain = 0
KGDS 142055Z 18013G18KT 07/M03 A3025 RMK A01 T00731028  RH  049%=      5-min Rain = 0
KGDS 142100Z 17012G17KT 07/M03 A3025 RMK A01 T00721030  RH  049%=      5-min Rain = 0
KGDS 142105Z 17012G18KT 08/M03 A3025 RMK A01 T00751027  RH  049%=      5-min Rain = 0
KGDS 142110Z 17011G17KT 08/M03 A3025 RMK A01 T00751028  RH  048%=      5-min Rain = 0
KGDS 142115Z 17012G19KT 08/M03 A3025 RMK A01 T00751028  RH  049%=      5-min Rain = 0
KGDS 142120Z 16011G16KT 08/M03 A3024 RMK A01 T00771026  RH  049%=      5-min Rain = 0
KGDS 142125Z 17013KT 08/M03 A3024 RMK A01 T00771026  RH  048%=      5-min Rain = 0
KGDS 142130Z 17010G15KT 08/M02 A3023 RMK A01 T00781023  RH  049%=      5-min Rain = 0
KGDS 142135Z 16013G18KT 08/M02 A3023 RMK A01 T00811023  RH  048%=      5-min Rain = 0
KGDS 142140Z 16011G16KT 08/M03 A3023 RMK A01 T00781025  RH  048%=      5-min Rain = 0
KGDS 142145Z 18012G17KT 08/M02 A3023 RMK A01 T00791023  RH  049%=      5-min Rain = 0
KGDS 142150Z 16011KT 08/M02 A3022 RMK A01 T00791023  RH  049%=      5-min Rain = 0
KGDS 142155Z 17013G19KT 08/M02 A3022 RMK A01 T00791022  RH  049%=      5-min Rain = 0
KGDS 142200Z 16015KT 08/M02 A3022 RMK A01 T00791022  RH  049%=      5-min Rain = 0
KGDS 142205Z 17012G18KT 08/M02 A3021 RMK A01 T00801021  RH  049%=      5-min Rain = 0
KGDS 142210Z 16015KT 08/M02 A3021 RMK A01 T00801020  RH  049%=      5-min Rain = 0
KGDS 142215Z 16015KT 08/M02 A3021 RMK A01 T00821019  RH  049%=      5-min Rain = 0
KGDS 142220Z 16015KT 08/M02 A3021 RMK A01 T00831018  RH  049%=      5-min Rain = 0
KGDS 142225Z 16013G18KT 08/M02 A3021 RMK A01 T00811019  RH  050%=      5-min Rain = 0
KGDS 142230Z 17014KT 08/M02 A3021 RMK A01 T00811019  RH  050%=      5-min Rain = 0
KGDS 142235Z 17015G20KT 08/M02 A3021 RMK A01 T00821017  RH  050%=      5-min Rain = 0
KGDS 142240Z 17014G20KT 08/M02 A302 RMK A01 T00811017  RH  050%=      5-min Rain = 0
KGDS 142245Z 17016G23KT 08/M02 A302 RMK A01 T00791017  RH  051%=      5-min Rain = 0
KGDS 142250Z 17016KT 08/M02 A302 RMK A01 T00801016  RH  051%=      5-min Rain = 0
KGDS 142255Z 17016KT 08/M02 A302 RMK A01 T00781017  RH  051%=      5-min Rain = 0
KGDS 142300Z 17016G21KT 08/M02 A302 RMK A01 T00771018  RH  051%=      5-min Rain = 0
KGDS 142305Z 16014G19KT 08/M02 A302 RMK A01 T00771017  RH  052%=      5-min Rain = 0
KGDS 142310Z 17016KT 08/M02 A302 RMK A01 T00781016  RH  052%=      5-min Rain = 0
KGDS 142315Z 17016KT 08/M02 A3019 RMK A01 T00771016  RH  052%=      5-min Rain = 0
KGDS 142320Z 17015G20KT 08/M01 A3019 RMK A01 T00771014  RH  053%=      5-min Rain = 0
KGDS 142325Z 17016KT 08/M01 A3019 RMK A01 T00761014  RH  053%=      5-min Rain = 0
KGDS 142330Z 17015KT 08/M01 A3019 RMK A01 T00751012  RH  054%=      5-min Rain = 0
KGDS 142335Z 17017G22KT 07/M01 A3019 RMK A01 T00741012  RH  055%=      5-min Rain = 0
KGDS 142340Z 17015KT 07/M01 A3019 RMK A01 T00731013  RH  055%=      5-min Rain = 0
KGDS 142345Z 17016KT 07/M01 A3019 RMK A01 T00721012  RH  056%=      5-min Rain = 0
KGDS 142350Z 17015KT 07/M01 A3019 RMK A01 T00711013  RH  056%=      5-min Rain = 0
KGDS 142355Z 17016KT 07/M01 A3019 RMK A01 T00701012  RH  056%=      5-min Rain = 0
KGDS 150000Z 17014KT 07/M01 A3019 RMK A01 T00691012  RH  057%=      5-min Rain = 0
KGDS 150005Z 16013G18KT 07/M01 A3019 RMK A01 T00681012  RH  058%=      5-min Rain = 0
KGDS 150010Z 16011KT 07/M01 A3019 RMK A01 T00661012  RH  058%=      5-min Rain = 0
KGDS 150015Z 17011KT 06/M01 A3019 RMK A01 T00631011  RH  060%=      5-min Rain = 0
KGDS 150020Z 17011KT 06/M01 A3019 RMK A01 T00621011  RH  060%=      5-min Rain = 0
KGDS 150025Z 16010KT 06/M01 A3019 RMK A01 T00601010  RH  061%=      5-min Rain = 0
KGDS 150030Z 17009KT 06/M01 A3019 RMK A01 T00571010  RH  063%=      5-min Rain = 0
KGDS 150035Z 17009KT 05/M01 A3019 RMK A01 T00541010  RH  064%=      5-min Rain = 0
KGDS 150040Z 17009KT 05/M01 A3019 RMK A01 T00511011  RH  065%=      5-min Rain = 0
KGDS 150045Z 17009KT 05/M01 A3019 RMK A01 T00491011  RH  066%=      5-min Rain = 0
KGDS 150050Z 17009KT 05/M01 A3019 RMK A01 T00471011  RH  067%=      5-min Rain = 0
KGDS 150055Z 17008KT 05/M01 A3019 RMK A01 T00451011  RH  068%=      5-min Rain = 0
KGDS 150100Z 16008KT 04/M01 A3019 RMK A01 T00431011  RH  069%=      5-min Rain = 0
KGDS 150105Z 16008KT 04/M01 A3018 RMK A01 T00401011  RH  070%=      5-min Rain = 0
KGDS 150110Z 16007KT 04/M01 A3018 RMK A01 T00381011  RH  071%=      5-min Rain = 0
KGDS 150115Z 15006KT 04/M01 A3018 RMK A01 T00351012  RH  072%=      5-min Rain = 0
KGDS 150120Z 15006KT 03/M01 A3018 RMK A01 T00311013  RH  073%=      5-min Rain = 0
KGDS 150125Z 14006KT 03/M01 A3018 RMK A01 T00291014  RH  074%=      5-min Rain = 0
KGDS 150130Z 14006KT 03/M01 A3018 RMK A01 T00271014  RH  075%=      5-min Rain = 0
KGDS 150135Z 14007KT 03/M01 A3018 RMK A01 T00261014  RH  076%=      5-min Rain = 0
KGDS 150140Z 14007KT 02/M01 A3018 RMK A01 T00241014  RH  077%=      5-min Rain = 0
KGDS 150145Z 14007KT 02/M01 A3018 RMK A01 T00231014  RH  077%=      5-min Rain = 0
KGDS 150150Z 14007KT 02/M01 A3018 RMK A01 T00221014  RH  078%=      5-min Rain = 0
KGDS 150155Z 14007KT 02/M01 A3018 RMK A01 T00201014  RH  079%=      5-min Rain = 0
KGDS 150200Z 14007KT 02/M01 A3018 RMK A01 T00201014  RH  079%=      5-min Rain = 0
KGDS 150205Z 15007KT 02/M01 A3017 RMK A01 T00201014  RH  079%=      5-min Rain = 0
KGDS 150210Z 16007KT 02/M01 A3018 RMK A01 T00201014  RH  079%=      5-min Rain = 0
KGDS 150215Z 16007KT 02/M02 A3018 RMK A01 T00201015  RH  078%=      5-min Rain = 0
KGDS 150220Z 16007KT 02/M02 A3017 RMK A01 T00201015  RH  079%=      5-min Rain = 0
KGDS 150225Z 16007KT 02/M02 A3017 RMK A01 T00201015  RH  078%=      5-min Rain = 0
KGDS 150230Z 16006KT 02/M02 A3017 RMK A01 T00201015  RH  078%=      5-min Rain = 0
KGDS 150235Z 15006KT 02/M02 A3017 RMK A01 T00201016  RH  078%=      5-min Rain = 0
KGDS 150240Z 16005KT 02/M02 A3017 RMK A01 T00201017  RH  078%=      5-min Rain = 0
KGDS 150245Z 15006KT 02/M02 A3017 RMK A01 T00221016  RH  077%=      5-min Rain = 0
KGDS 150250Z 15006KT 02/M02 A3017 RMK A01 T00211017  RH  077%=      5-min Rain = 0
KGDS 150255Z 15006KT 02/M02 A3017 RMK A01 T00191016  RH  078%=      5-min Rain = 0
KGDS 150300Z 15006KT 02/M02 A3017 RMK A01 T00211016  RH  077%=      5-min Rain = 0
KGDS 150305Z 16006KT 02/M02 A3017 RMK A01 T00221015  RH  077%=      5-min Rain = 0
KGDS 150310Z 16007KT 02/M01 A3016 RMK A01 T00231014  RH  077%=      5-min Rain = 0
KGDS 150315Z 16008KT 03/M01 A3016 RMK A01 T00291012  RH  075%=      5-min Rain = 0
KGDS 150320Z 16008KT 03/M01 A3016 RMK A01 T00271013  RH  075%=      5-min Rain = 0
KGDS 150325Z 16007KT 02/M01 A3016 RMK A01 T00211014  RH  078%=      5-min Rain = 0
KGDS 150330Z 17007KT 02/M02 A3016 RMK A01 T00161016  RH  080%=      5-min Rain = 0
KGDS 150335Z 17007KT 01/M02 A3016 RMK A01 T00131017  RH  081%=      5-min Rain = 0
KGDS 150340Z 16007KT 01/M02 A3016 RMK A01 T00101018  RH  082%=      5-min Rain = 0
KGDS 150345Z 16006KT 01/M02 A3015 RMK A01 T00111018  RH  082%=      5-min Rain = 0
KGDS 150350Z 17005KT 01/M02 A3015 RMK A01 T00101019  RH  082%=      5-min Rain = 0
KGDS 150355Z 18004KT 01/M02 A3016 RMK A01 T00101019  RH  082%=      5-min Rain = 0
KGDS 150400Z 19004KT 01/M02 A3016 RMK A01 T00111018  RH  081%=      5-min Rain = 0
KGDS 150405Z 19005KT 01/M02 A3015 RMK A01 T00111019  RH  081%=      5-min Rain = 0
KGDS 150410Z 19006KT 01/M02 A3015 RMK A01 T00081020  RH  082%=      5-min Rain = 0
KGDS 150415Z 18008KT 01/M02 A3015 RMK A01 T00051020  RH  084%=      5-min Rain = 0
KGDS 150420Z 18008KT 01/M02 A3015 RMK A01 T00061019  RH  084%=      5-min Rain = 0
KGDS 150425Z 18006KT 00/M02 A3015 RMK A01 T00021022  RH  084%=      5-min Rain = 0
KGDS 150430Z 19006KT M00/M02 A3015 RMK A01 T10021023  RH  087%=      5-min Rain = 0
KGDS 150435Z 21006KT M00/M02 A3016 RMK A01 T10011022  RH  086%=      5-min Rain = 0
KGDS 150440Z 22005KT 00/M02 A3015 RMK A01 T00011020  RH  086%=      5-min Rain = 0
KGDS 150445Z 22005KT 00/M02 A3015 RMK A01 T00031020  RH  086%=      5-min Rain = 0
KGDS 150450Z 22005KT 00/M02 A3015 RMK A01 T00011021  RH  086%=      5-min Rain = 0
KGDS 150455Z 22005KT 00/02 A3015 RMK A01 T00-00-22  RH  086%=      5-min Rain = 0
KGDS 150500Z 21006KT 00/M02 A3014 RMK A01 T00011021  RH  086%=      5-min Rain = 0
KGDS 150505Z 20007KT 00/02 A3014 RMK A01 T00000-22  RH  086%=      5-min Rain = 0
KGDS 150510Z 20007KT 00/M02 A3014 RMK A01 T00011020  RH  086%=      5-min Rain = 0
KGDS 150515Z 22006KT 00/02 A3014 RMK A01 T00-00-22  RH  086%=      5-min Rain = 0
KGDS 150520Z 22006KT 00/02 A3015 RMK A01 T00000-19  RH  087%=      5-min Rain = 0
KGDS 150525Z 22006KT 00/M02 A3015 RMK A01 T00041016  RH  088%=      5-min Rain = 0
KGDS 150530Z 21007KT 01/M01 A3014 RMK A01 T00061014  RH  087%=      5-min Rain = 0
KGDS 150535Z 20008KT 01/M01 A3014 RMK A01 T00081012  RH  087%=      5-min Rain = 0
KGDS 150540Z 20009KT 01/M01 A3014 RMK A01 T00101011  RH  087%=      5-min Rain = 0
KGDS 150545Z 19009KT 01/M01 A3014 RMK A01 T00111010  RH  086%=      5-min Rain = 0
KGDS 150550Z 19009KT 01/M01 A3014 RMK A01 T00101011  RH  087%=      5-min Rain = 0
KGDS 150555Z 19009KT 01/M01 A3013 RMK A01 T00091011  RH  087%=      5-min Rain = 0

Page generated in 0.041 seconds.